EB1AD-9
43.32.40N 005.41.29W
IN73DM aprs.fi
zuletzt gehoert:
2021-12-29T20:28:29Z
zuerst gehoert:
2021-07-19T16:17:58Z

APRS Gijón/Xixón [IN73DM], 0 Stunde(n), EB1AD-9 [20:06:31, 0s].
EA1IEJ 43.31.81N 005.40.25WIN73DM 1.465km 122°ESE19:01:57ZMMDVM MMDVM HS Hat 438.8500/438.8500 CC6
EB1TK 43.32.22N 005.42.32WIN73DM 1.539km 269°W19:05:27ZWind 077°/000kn, Böen bis 001kn, Temp 9.44c, Regen 0.0mm, letzte 24h 0.0mm, seit 0h 0.0mm, Baro 1035.5h, Hum: 83%(3EB1TK-13)
LEEL 43.32.98N 005.41.71WIN73DN 1.555km 332°NNW19:00:12ZHelipuerto de El Musel: LEAS 191800Z 16004KT CAVOK 07/06 Q1032 NOSIG=
EA1DZR 43.31.48N 005.40.00WIN73EM 2.114km 132°SE19:02:55ZMMDVM DV ADER 434.3500/434.3500 CC1
ED1ZAE 43.27.99N 005.40.54WIN73DL 7.920km 174°S19:05:47ZWIDE3-3 ESAS3-3 IN73DL WWW.EA1URG.ORG(3ED1ZAE-3)
EB1GEM 43.30.00N 005.36.07WIN73EM 8.007km 121°ESE18:56:21ZWX3in1Plus2.0 U=13.3V,T=??.?C/??.?F(3EB1GEM-3)
ED1ZAS 43.27.52N 005.40.17WIN73DL 8.829km 171°S19:00:50ZRD985 438.2250/430.6250 CC1
LEGM 43.26.15N 005.49.84WIN73CK 16.207km 226°SW19:00:06ZHelipuerto de La Morgal: LEAS 191800Z 16004KT CAVOK 07/06 Q1032 NOSIG=
LEMR 43.25.83N 005.49.60WIN73CK 16.423km 224°SW19:00:21ZAerodromo de la Morgal: LEAS 191800Z 16004KT CAVOK 07/06 Q1032 NOSIG=
EA1ABW 43.24.77N 005.47.77WIN73CJ 16.431km 213°SSW19:01:38ZMMDVM MMDVM HS Hat 439.8250/439.8250 CC1
EA1AHA 43.32.72N 005.54.38WIN73BN 17.761km 273°W19:06:16ZMMDVM MMDVM HS Hat 432.0000/432.0000 CC1
Wind 000°/000kn, Böen bis 000kn, Temp 8.89c, Regen 0.0mm, letzte 24h 36.3mm, seit 0h 36.3mm, Baro 1034.4h, Hum: 74%(2EA1AHA-13)
EA1JAY 43.29.33N 005.26.78WIN73GL 20.075km 105°ESE18:45:04ZEA1JAY(3EA1JAY-2)
EA1HWD 43.28.96N 005.26.30WIN73GL 20.892km 107°ESE19:02:31Z144.575FM Local frecuency VHF. 434.2500/434.2500 CC1
LEHU 43.22.63N 005.49.57WIN73CJ 21.093km 212°SSW19:00:11ZHelipuerto del HUCA: LEAS 191800Z 16004KT CAVOK 07/06 Q1032 NOSIG=
ED1ZAY 43.29.47N 005.56.54WIN73AL 21.285km 256°WSW19:00:49ZRD625 438.3000/430.7000 CC1
ED1ZAU 43.23.04N 005.52.75WIN73BJ 23.096km 222°SW19:00:47ZRD625 438.5000/430.9000 CC1
EA1YR 43.22.09N 005.51.86WIN73BI 23.665km 218°SW19:03:00ZMMDVM DVS 434.3500/434.3500 CC1
33D00 43.21.63N 005.51.13WIN73BI 23.788km 214°SW18:58:42Z33-D-00 Protección Civil REMER / Delegación del Gobierno en Asturias
EA1HJA 43.21.47N 005.52.09WIN73BI 24.770km 216°SW19:01:26ZEA1HJA@URE.ES(3EA1HJA-2)
IN73FL WX3IN1+ 2.0 - V=14.0V,TX TEMP=43.5C(2EA1HJA)
EA1L 43.20.37N 005.51.13WIN73BI 25.737km 211°SSW19:00:24Zea1l@ure.es V=13.5V,T=??.?C
Wind 077°/000kn, Böen bis 003kn, Temp 6.67c, Regen 0.0mm, letzte 24h 0.0mm, seit 0h 0.0mm, Baro 1030.5h, Hum: 86%(2EA1L-13)
EA1HWX 43.19.39N 005.50.84WIN73BH 27.115km 209°SSW19:02:57ZMMDVM DMO 435.5000/435.5000 CC1
EA1GCM 43.17.02N 005.48.47WIN73CG 29.868km 199°SSW18:46:42ZIN73cg/-(3EA1GCM-8)
EA1JBU 43.30.80N 005.16.21WIN73IM 33.632km 94°E18:11:30Zhttps://aprsdroid.org/(3EA1JBU-5)
EA1JBE 43.30.90N 005.16.15WIN73IM 33.711km 94°E19:00:12Zhttps://aprsdroid.org/(3EA1JBE-13)
MAIN QTH http://qrz.com/db/ea1jbe(2EA1JBE-1)
EA1IMW 43.14.36N 005.46.93WIN73CF 34.025km 193°SSW19:02:56ZGRUPO RADIO GALENA (GRG) 430.4500/430.4500 CC1
EB1DGC 43.12.60N 005.45.59WIN73CF 36.877km 189°S18:31:11ZMMDVM MMDVM HS Hat 433.4500/433.4500 CC1
EA1JBL 43.12.28N 005.47.42WIN73CE 37.915km 193°SSW19:02:36ZMMDVM DVMega 435.3000/435.3000 CC1
EA1HWA 43.12.00N 005.47.40WIN73CE 38.430km 193°SSW19:02:30ZMMDVM MMDVM HS Hat 433.4500/433.4500 CC1
EA1RCG 43.09.45N 005.49.78WIN73CD 43.778km 195°SSW18:31:43ZGRUPO RADIO GALENA (GRG) 430.4500/430.4500 CC1
ED1ZAD 43.07.90N 005.38.52WIN73ED 45.223km 175°S19:00:57ZED1ZAD-3 APRS Digi/Igate(3ED1ZAD-3)

aprs.pl 5.0.011w DL3EL © 2006-2021 [1435552]